Time;durP1;ratioP1;P1;durP2;ratioP2;P2;SDS_P1;SDS_P2;PMS_P1;PMS_P2;Temp;Humidity;BMP_temperature;BMP_pressure;BME280_temperature;BME280_humidity;BME280_pressure;Samples;Min_cycle;Max_cycle;Signal;HPM_P1;HPM_P2
2022/06/18 00:02:10;;;;;;;15.13;8.98;;;;;;;21.22;100.00;101185.16;5121221;27;20023;-78
2022/06/18 00:04:56;;;;;;;17.10;9.52;;;;;;;21.49;100.00;101185.47;5137136;27;20531;-78
2022/06/18 00:07:49;;;;;;;18.25;9.73;;;;;;;21.45;100.00;101183.91;5137739;27;20027;-78
2022/06/18 00:10:35;;;;;;;19.92;9.38;;;;;;;21.46;100.00;101185.66;5137554;27;20019;-78
2022/06/18 00:13:40;;;;;;;15.73;8.82;;;;;;;21.00;100.00;101205.91;5136401;27;20034;-78
2022/06/18 00:16:27;;;;;;;18.35;8.82;;;;;;;21.09;100.00;101201.94;5121587;27;20024;-78
2022/06/18 00:19:12;;;;;;;14.60;7.72;;;;;;;21.19;100.00;101205.81;5140108;27;20023;-77
2022/06/18 00:21:58;;;;;;;11.25;7.32;;;;;;;21.12;100.00;101210.59;5138123;27;20347;-77
2022/06/18 00:24:44;;;;;;;13.00;7.32;;;;;;;21.14;100.00;101223.84;5136900;27;20383;-77
2022/06/18 00:27:30;;;;;;;9.27;6.57;;;;;;;20.92;100.00;101213.44;5120590;27;20102;-77
2022/06/18 00:30:19;;;;;;;12.18;7.28;;;;;;;20.93;100.00;101211.66;5121968;27;20023;-77
2022/06/18 00:33:06;;;;;;;11.35;6.38;;;;;;;20.90;100.00;101217.94;5121141;27;20464;-78
2022/06/18 00:35:56;;;;;;;10.27;6.50;;;;;;;20.90;100.00;101220.63;5136955;27;20027;-79
2022/06/18 00:38:46;;;;;;;8.18;6.15;;;;;;;21.13;100.00;101225.66;5136205;27;20023;-78
2022/06/18 00:41:33;;;;;;;8.90;5.90;;;;;;;21.09;100.00;101225.91;5136504;27;20047;-77
2022/06/18 00:44:23;;;;;;;14.02;6.28;;;;;;;20.92;100.00;101226.78;5120189;27;20031;-77
2022/06/18 00:47:39;;;;;;;9.80;5.93;;;;;;;20.83;100.00;101218.34;5136820;27;20423;-77
2022/06/18 00:50:28;;;;;;;15.52;5.90;;;;;;;20.53;100.00;101211.94;5122315;27;20027;-77
2022/06/18 00:53:18;;;;;;;7.13;5.70;;;;;;;20.80;100.00;101218.50;5120161;27;20404;-78
2022/06/18 00:56:12;;;;;;;10.48;5.80;;;;;;;21.18;100.00;101212.94;5119848;27;20027;-77
2022/06/18 00:59:31;;;;;;;12.65;5.93;;;;;;;21.07;100.00;101223.31;5137870;27;20096;-77
2022/06/18 01:02:22;;;;;;;7.05;5.43;;;;;;;21.21;100.00;101212.78;5135811;27;20019;-77
2022/06/18 01:05:14;;;;;;;7.97;5.55;;;;;;;21.31;100.00;101226.47;5135749;27;20439;-77
2022/06/18 01:08:03;;;;;;;5.82;5.10;;;;;;;21.43;100.00;101218.69;5135611;27;20053;-77
2022/06/18 01:10:56;;;;;;;7.63;5.38;;;;;;;20.91;100.00;101217.06;5136128;27;20456;-76
2022/06/18 01:13:43;;;;;;;6.35;5.07;;;;;;;20.78;100.00;101218.59;5119985;27;20080;-77
2022/06/18 01:16:29;;;;;;;6.93;4.93;;;;;;;21.04;100.00;101218.13;5120001;27;20023;-77
2022/06/18 01:19:27;;;;;;;8.15;5.30;;;;;;;21.09;100.00;101215.25;5135448;27;20035;-77
2022/06/18 01:22:53;;;;;;;6.90;5.43;;;;;;;21.28;100.00;101214.19;5119869;27;20034;-78
2022/06/18 01:25:40;;;;;;;6.90;5.20;;;;;;;20.92;100.00;101212.56;5135375;27;20345;-76
2022/06/18 01:28:27;;;;;;;8.45;5.20;;;;;;;20.96;100.00;101215.03;5134755;27;20054;-77
2022/06/18 01:31:12;;;;;;;8.75;5.03;;;;;;;20.99;100.00;101214.88;5135746;27;20102;-77
2022/06/18 01:33:59;;;;;;;9.40;4.95;;;;;;;21.09;100.00;101209.91;5135379;27;20029;-78
2022/06/18 01:36:45;;;;;;;6.20;4.68;;;;;;;20.92;100.00;101207.25;5119107;27;20034;-78
2022/06/18 01:39:36;;;;;;;8.60;4.97;;;;;;;20.85;100.00;101209.34;5134132;27;20525;-78
2022/06/18 01:42:26;;;;;;;8.77;5.15;;;;;;;20.94;100.00;101213.38;5134990;27;20041;-78
2022/06/18 01:45:21;;;;;;;9.90;5.25;;;;;;;20.63;100.00;101206.06;5135005;27;20106;-77
2022/06/18 01:48:16;;;;;;;6.15;4.75;;;;;;;20.93;100.00;101193.84;5134959;27;20038;-78
2022/06/18 01:51:08;;;;;;;9.93;4.85;;;;;;;20.53;100.00;101191.50;5135033;27;20031;-78
2022/06/18 01:54:00;;;;;;;8.00;4.68;;;;;;;20.83;100.00;101205.91;5135721;27;20030;-78
2022/06/18 01:56:51;;;;;;;14.13;5.40;;;;;;;20.62;100.00;101203.47;5134639;27;20487;-78
2022/06/18 01:59:43;;;;;;;10.48;4.80;;;;;;;20.83;100.00;101218.34;5135286;27;20072;-78
2022/06/18 02:02:29;;;;;;;5.80;4.97;;;;;;;20.62;100.00;101220.31;5133885;27;20027;-77
2022/06/18 02:05:16;;;;;;;8.50;4.78;;;;;;;20.59;100.00;101217.81;5134896;27;20029;-77
2022/06/18 02:08:03;;;;;;;6.63;4.80;;;;;;;20.74;100.00;101222.34;5134861;27;20114;-77
2022/06/18 02:10:48;;;;;;;7.32;5.72;;;;;;;20.81;100.00;101231.75;5134599;27;20404;-77
2022/06/18 02:13:42;;;;;;;9.40;5.30;;;;;;;20.76;100.00;101236.47;5134628;27;20034;-78
2022/06/18 02:16:34;;;;;;;6.72;5.60;;;;;;;20.69;100.00;101248.34;5134948;27;20038;-77
2022/06/18 02:19:21;;;;;;;8.02;5.90;;;;;;;20.61;100.00;101241.72;5134420;27;20019;-78
2022/06/18 02:22:09;;;;;;;6.72;4.95;;;;;;;20.90;100.00;101233.94;5119188;27;20069;-78
2022/06/18 02:24:56;;;;;;;8.70;4.90;;;;;;;21.16;100.00;101237.94;5118087;27;20027;-78
2022/06/18 02:27:43;;;;;;;8.70;5.55;;;;;;;21.13;100.00;101236.31;5134709;27;20031;-77
2022/06/18 02:30:34;;;;;;;5.85;5.25;;;;;;;20.82;100.00;101244.13;5133938;28;20038;-77
2022/06/18 02:33:29;;;;;;;9.85;5.15;;;;;;;21.17;100.00;101242.31;5134120;28;20019;-77
2022/06/18 02:36:23;;;;;;;6.28;4.70;;;;;;;21.16;100.00;101252.16;5119172;28;20031;-78
2022/06/18 02:39:52;;;;;;;7.90;5.13;;;;;;;21.04;100.00;101265.22;5134121;28;20031;-77
2022/06/18 02:42:37;;;;;;;5.88;4.75;;;;;;;21.37;100.00;101272.31;5099916;28;20046;-76
2022/06/18 02:45:25;;;;;;;6.60;4.80;;;;;;;21.10;100.00;101284.41;5118599;28;20074;-77
2022/06/18 02:48:11;;;;;;;8.07;5.03;;;;;;;21.68;100.00;101301.75;5135047;28;20035;-78
2022/06/18 02:51:00;;;;;;;7.47;4.93;;;;;;;21.47;100.00;101315.38;5134630;28;20042;-78
2022/06/18 02:53:45;;;;;;;6.55;5.15;;;;;;;21.39;100.00;101322.91;5134238;28;20023;-78
2022/06/18 02:56:31;;;;;;;8.90;4.85;;;;;;;21.88;100.00;101338.06;5133073;28;20023;-77
2022/06/18 02:59:17;;;;;;;7.35;4.82;;;;;;;21.57;100.00;101344.13;5134144;28;20034;-76
2022/06/18 03:02:03;;;;;;;7.40;4.78;;;;;;;21.59;100.00;101339.59;5132856;28;20048;-77
2022/06/18 03:04:49;;;;;;;6.55;4.85;;;;;;;21.45;100.00;101342.09;5134014;28;20424;-77
2022/06/18 03:07:34;;;;;;;8.02;4.60;;;;;;;21.39;100.00;101334.44;5134509;27;20038;-77
2022/06/18 03:13:25;;;;;;;5.60;4.85;;;;;;;21.23;100.00;101324.66;5138596;27;20034;-78
2022/06/18 03:16:13;;;;;;;5.80;5.22;;;;;;;21.45;100.00;101330.56;5138191;27;20033;-77
2022/06/18 03:19:00;;;;;;;6.55;5.13;;;;;;;21.45;100.00;101335.91;5138255;27;20042;-78
2022/06/18 03:21:51;;;;;;;6.43;5.05;;;;;;;21.27;100.00;101321.75;5138449;27;20029;-78
2022/06/18 03:24:36;;;;;;;6.00;5.28;;;;;;;21.39;100.00;101325.56;5121550;27;20027;-77
2022/06/18 03:27:22;;;;;;;7.00;5.28;;;;;;;21.25;100.00;101310.28;5137511;27;20437;-77
2022/06/18 03:30:08;;;;;;;8.57;4.57;;;;;;;21.19;100.00;101320.41;5138084;27;20019;-77
2022/06/18 03:32:54;;;;;;;7.85;5.18;;;;;;;21.25;100.00;101323.63;5137274;27;20031;-77
2022/06/18 03:35:45;;;;;;;5.07;4.57;;;;;;;21.45;100.00;101330.56;5138508;27;20023;-77
2022/06/18 03:38:32;;;;;;;5.80;5.10;;;;;;;21.22;100.00;101329.09;5137421;27;20030;-77
2022/06/18 03:41:19;;;;;;;7.45;4.72;;;;;;;21.44;100.00;101335.06;5138047;27;20027;-76
2022/06/18 03:44:05;;;;;;;5.07;4.57;;;;;;;21.32;100.00;101338.38;5137601;27;20051;-78
2022/06/18 03:46:51;;;;;;;7.10;4.90;;;;;;;21.41;100.00;101343.22;5121492;27;20023;-78
2022/06/18 03:49:37;;;;;;;5.13;4.60;;;;;;;21.31;100.00;101336.66;5137672;27;20163;-79
2022/06/18 03:52:22;;;;;;;6.50;4.90;;;;;;;21.34;100.00;101335.63;5137505;27;20042;-78
2022/06/18 03:55:13;;;;;;;5.72;5.10;;;;;;;21.10;100.00;101350.22;5121239;27;20047;-77
2022/06/18 03:57:59;;;;;;;6.80;4.72;;;;;;;21.08;100.00;101350.28;5137521;27;20121;-77
2022/06/18 04:00:45;;;;;;;8.23;4.95;;;;;;;21.14;100.00;101352.63;5138125;27;20027;-77
2022/06/18 04:03:31;;;;;;;7.15;4.85;;;;;;;21.42;100.00;101339.59;5137084;27;20023;-77
2022/06/18 04:06:17;;;;;;;8.38;5.60;;;;;;;21.26;100.00;101337.81;5137381;27;20031;-78
2022/06/18 04:09:03;;;;;;;6.57;5.13;;;;;;;21.09;100.00;101346.66;5123155;27;20103;-79
2022/06/18 04:11:49;;;;;;;6.43;5.10;;;;;;;20.88;100.00;101344.19;5136302;27;20023;-78
2022/06/18 04:14:35;;;;;;;6.93;4.97;;;;;;;20.74;100.00;101355.50;5137621;27;20096;-78
2022/06/18 04:17:21;;;;;;;6.50;5.03;;;;;;;21.02;100.00;101358.56;5123040;27;20102;-78
2022/06/18 04:20:22;;;;;;;7.65;4.85;;;;;;;21.11;100.00;101365.25;5121006;27;20371;-79
2022/06/18 04:23:10;;;;;;;6.20;5.10;;;;;;;21.19;100.00;101366.59;5136296;27;20371;-78
2022/06/18 04:25:56;;;;;;;9.25;5.38;;;;;;;21.52;100.00;101371.97;5135906;27;20073;-78
2022/06/18 04:28:42;;;;;;;6.82;5.50;;;;;;;21.30;100.00;101374.88;5137327;27;20046;-78
2022/06/18 04:31:28;;;;;;;6.32;4.80;;;;;;;21.31;100.00;101367.75;5137157;27;20091;-77
2022/06/18 04:34:14;;;;;;;8.38;5.35;;;;;;;21.28;100.00;101371.44;5137789;27;20459;-79
2022/06/18 04:36:59;;;;;;;8.75;4.97;;;;;;;21.08;100.00;101374.25;5137783;27;20059;-78
2022/06/18 04:39:45;;;;;;;6.38;4.78;;;;;;;21.21;100.00;101386.03;5137547;27;20020;-79
2022/06/18 04:42:31;;;;;;;5.82;5.18;;;;;;;21.41;100.00;101382.31;5139122;27;20023;-79
2022/06/18 04:45:17;;;;;;;6.78;4.97;;;;;;;21.27;100.00;101379.53;5121104;27;20029;-77
2022/06/18 04:48:05;;;;;;;7.50;4.93;;;;;;;21.44;100.00;101399.06;5136767;27;20408;-79
2022/06/18 04:50:51;;;;;;;7.13;4.97;;;;;;;21.27;100.00;101396.38;5146436;27;20027;-76
2022/06/18 04:53:37;;;;;;;5.32;4.57;;;;;;;21.29;100.00;101409.63;5133409;27;20034;-77
2022/06/18 04:56:23;;;;;;;7.32;4.93;;;;;;;21.36;100.00;101405.72;5147545;27;20031;-76
2022/06/18 04:59:09;;;;;;;9.02;5.05;;;;;;;21.71;100.00;101408.34;5154308;27;20031;-78
2022/06/18 05:02:05;;;;;;;8.65;4.95;;;;;;;21.85;100.00;101410.25;5138562;27;20110;-78
2022/06/18 05:04:53;;;;;;;5.93;4.57;;;;;;;21.76;100.00;101408.06;5157607;27;20436;-77
2022/06/18 05:07:39;;;;;;;11.05;5.07;;;;;;;21.60;100.00;101412.44;5139819;27;20019;-75
2022/06/18 05:10:24;;;;;;;5.90;4.70;;;;;;;21.54;100.00;101408.28;5148634;27;20115;-75
2022/06/18 05:13:11;;;;;;;7.25;4.90;;;;;;;21.26;100.00;101410.63;5138681;27;20110;-73
2022/06/18 05:15:58;;;;;;;10.25;5.50;;;;;;;21.30;100.00;101414.88;5137544;27;20026;-74
2022/06/18 05:18:46;;;;;;;9.15;5.05;;;;;;;21.37;100.00;101420.75;5141490;27;20088;-75
2022/06/18 05:21:31;;;;;;;7.40;4.88;;;;;;;21.58;100.00;101428.53;5136806;27;20034;-75
2022/06/18 05:24:18;;;;;;;6.25;4.78;;;;;;;21.87;100.00;101424.38;5126794;27;20440;-78
2022/06/18 05:27:04;;;;;;;9.02;5.10;;;;;;;21.85;100.00;101428.94;5150645;27;20051;-75
2022/06/18 05:29:50;;;;;;;6.75;5.30;;;;;;;21.62;100.00;101440.75;5146196;27;20019;-73
2022/06/18 05:32:36;;;;;;;7.47;5.45;;;;;;;21.87;100.00;101437.72;5146003;27;20051;-75
2022/06/18 05:35:22;;;;;;;7.50;5.07;;;;;;;21.88;100.00;101435.00;5151678;27;20035;-74
2022/06/18 05:38:14;;;;;;;8.93;5.47;;;;;;;21.52;100.00;101439.53;5154934;27;20015;-74
2022/06/18 05:41:00;;;;;;;6.95;5.13;;;;;;;21.27;100.00;101443.50;5133354;27;20052;-74
2022/06/18 05:43:45;;;;;;;9.75;5.60;;;;;;;21.36;100.00;101438.56;5147501;27;20023;-74
2022/06/18 05:46:32;;;;;;;8.20;4.75;;;;;;;21.84;100.00;101438.75;5136832;27;20023;-75
2022/06/18 05:49:18;;;;;;;7.85;5.07;;;;;;;21.74;100.00;101442.84;5120321;27;20424;-76
2022/06/18 05:52:04;;;;;;;7.63;5.10;;;;;;;21.90;100.00;101437.56;5136210;27;20130;-76
2022/06/18 05:54:52;;;;;;;7.53;4.85;;;;;;;21.82;100.00;101434.44;5135723;27;20027;-77
2022/06/18 05:57:49;;;;;;;9.25;5.03;;;;;;;22.02;100.00;101442.28;5135236;27;20026;-76
2022/06/18 06:00:35;;;;;;;7.22;5.03;;;;;;;22.32;100.00;101449.50;5135962;27;20027;-76
2022/06/18 06:03:21;;;;;;;6.28;4.53;;;;;;;22.41;100.00;101449.00;5134849;27;20038;-76
2022/06/18 06:06:06;;;;;;;8.45;4.95;;;;;;;22.46;100.00;101446.94;5135762;27;20031;-79
2022/06/18 06:08:52;;;;;;;9.07;5.50;;;;;;;22.79;100.00;101454.91;5135322;27;20092;-78
2022/06/18 06:11:38;;;;;;;6.95;4.90;;;;;;;22.79;100.00;101455.75;5133756;27;20030;-77
2022/06/18 06:14:24;;;;;;;5.78;4.85;;;;;;;22.62;100.00;101457.66;5119502;27;20031;-77
2022/06/18 06:17:19;;;;;;;6.78;4.88;;;;;;;23.01;100.00;101461.63;5119825;27;20019;-80
2022/06/18 06:20:11;;;;;;;5.47;4.85;;;;;;;22.61;100.00;101456.81;5135758;27;20336;-79
2022/06/18 06:22:58;;;;;;;7.78;4.60;;;;;;;22.34;100.00;101457.44;5136410;27;20038;-75
2022/06/18 06:25:45;;;;;;;10.13;5.05;;;;;;;22.44;100.00;101467.53;5118938;28;20122;-74
2022/06/18 06:28:31;;;;;;;5.78;4.90;;;;;;;22.51;100.00;101462.75;5135517;27;20031;-73
2022/06/18 06:31:18;;;;;;;7.80;4.50;;;;;;;22.77;100.00;101465.69;5119062;28;20031;-74
2022/06/18 06:34:03;;;;;;;5.20;4.70;;;;;;;22.86;100.00;101458.94;5135200;28;20106;-78
2022/06/18 06:36:49;;;;;;;8.07;4.60;;;;;;;22.89;100.00;101464.13;5134634;28;20023;-71
2022/06/18 06:39:35;;;;;;;5.63;4.40;;;;;;;22.86;100.00;101462.50;5134494;28;20031;-74
2022/06/18 06:42:21;;;;;;;6.47;4.28;;;;;;;23.40;100.00;101461.19;5135476;27;20043;-75
2022/06/18 06:45:10;;;;;;;8.30;4.53;;;;;;;23.62;100.00;101458.09;5124577;27;20027;-73
2022/06/18 06:47:57;;;;;;;4.45;4.05;;;;;;;23.56;100.00;101469.16;5123615;27;20092;-72
2022/06/18 06:50:46;;;;;;;7.35;5.18;;;;;;;23.61;100.00;101469.75;5138419;27;20030;-73
2022/06/18 06:53:32;;;;;;;5.90;4.45;;;;;;;23.42;100.00;101472.63;5138420;27;20019;-72
2022/06/18 06:59:24;;;;;;;8.02;4.55;;;;;;;22.96;100.00;101476.22;5139735;27;20114;-74
2022/06/18 07:02:15;;;;;;;6.10;4.50;;;;;;;22.53;100.00;101474.19;5138849;27;20026;-74
2022/06/18 07:05:00;;;;;;;7.43;4.10;;;;;;;23.21;100.00;101469.41;5123688;27;20416;-76
2022/06/18 07:07:46;;;;;;;8.35;4.68;;;;;;;23.03;100.00;101477.59;5138581;27;20087;-76
2022/06/18 07:10:32;;;;;;;6.97;4.40;;;;;;;22.73;100.00;101473.94;5139163;27;20118;-76
2022/06/18 07:13:19;;;;;;;7.50;5.03;;;;;;;22.93;100.00;101471.03;5138820;27;20023;-76
2022/06/18 07:16:05;;;;;;;15.73;7.82;;;;;;;23.48;100.00;101473.13;5138580;27;20019;-77
2022/06/18 07:18:53;;;;;;;10.02;4.35;;;;;;;23.55;100.00;101472.78;5139016;27;20023;-76
2022/06/18 07:21:38;;;;;;;5.15;3.97;;;;;;;23.50;100.00;101462.34;5123128;27;20023;-79
2022/06/18 07:24:24;;;;;;;5.70;4.20;;;;;;;24.06;100.00;101469.72;5138459;27;20035;-78
2022/06/18 07:27:10;;;;;;;10.18;4.50;;;;;;;23.97;100.00;101470.25;5121513;27;20082;-78
2022/06/18 07:29:57;;;;;;;5.82;4.28;;;;;;;24.13;100.00;101477.25;5122869;27;20028;-78
2022/06/18 07:32:45;;;;;;;8.98;4.20;;;;;;;23.87;100.00;101485.97;5138056;27;20037;-77
2022/06/18 07:35:34;;;;;;;4.25;3.63;;;;;;;24.02;100.00;101484.22;5138230;27;20038;-77
2022/06/18 07:38:20;;;;;;;7.80;5.88;;;;;;;24.85;100.00;101487.88;5138321;27;20106;-77
2022/06/18 07:41:06;;;;;;;12.07;4.85;;;;;;;24.10;100.00;101488.16;5139288;27;20023;-78
2022/06/18 07:43:55;;;;;;;6.40;4.10;;;;;;;23.95;100.00;101493.59;5138600;27;20046;-77
2022/06/18 07:46:41;;;;;;;8.70;4.18;;;;;;;23.90;100.00;101482.28;5137974;27;20033;-79
2022/06/18 07:49:27;;;;;;;10.55;4.40;;;;;;;23.73;100.00;101490.41;5137818;27;20038;-79
2022/06/18 07:52:14;;;;;;;6.32;4.40;;;;;;;24.46;100.00;101485.00;5137709;27;20019;-77
2022/06/18 07:55:00;;;;;;;7.93;4.43;;;;;;;24.98;100.00;101486.13;5136903;27;20099;-77
2022/06/18 07:57:46;;;;;;;6.63;3.95;;;;;;;24.95;100.00;101497.91;5137282;27;20381;-76
2022/06/18 08:00:32;;;;;;;12.98;11.50;;;;;;;25.15;100.00;101488.59;5136416;27;20053;-76
2022/06/18 08:03:18;;;;;;;5.60;3.72;;;;;;;25.30;100.00;101491.16;5136941;27;20023;-76
2022/06/18 08:06:04;;;;;;;6.72;4.13;;;;;;;25.77;100.00;101491.50;5121325;27;20452;-78
2022/06/18 08:08:50;;;;;;;12.25;4.38;;;;;;;26.21;100.00;101483.97;5137254;27;20098;-77
2022/06/18 08:11:37;;;;;;;5.18;3.55;;;;;;;25.88;100.00;101483.56;5136769;27;20038;-78
2022/06/18 08:14:23;;;;;;;6.10;3.80;;;;;;;26.27;95.57;101483.53;5124067;27;20023;-78
2022/06/18 08:17:09;;;;;;;7.95;4.38;;;;;;;26.41;95.17;101480.69;5137060;27;20023;-78
2022/06/18 08:19:55;;;;;;;3.95;3.05;;;;;;;25.75;90.56;101488.06;5137051;27;20054;-80
2022/06/18 08:22:44;;;;;;;4.72;3.30;;;;;;;24.97;97.81;101481.72;5136769;27;20031;-79
2022/06/18 08:25:31;;;;;;;6.07;3.55;;;;;;;26.26;92.20;101487.19;5135801;27;20104;-79
2022/06/18 08:28:17;;;;;;;6.90;3.47;;;;;;;25.37;91.97;101492.47;5137276;27;20114;-78
2022/06/18 08:31:04;;;;;;;5.35;3.92;;;;;;;25.32;95.17;101491.06;5137094;27;20532;-78
2022/06/18 08:33:50;;;;;;;4.50;3.40;;;;;;;25.31;98.03;101487.50;5121588;27;20027;-78
2022/06/18 08:36:38;;;;;;;4.93;3.13;;;;;;;26.00;94.34;101487.28;5137069;27;20355;-78
2022/06/18 08:39:24;;;;;;;8.57;3.33;;;;;;;25.81;91.98;101476.91;5121804;27;20027;-76
2022/06/18 08:42:33;;;;;;;5.20;3.30;;;;;;;25.53;90.45;101465.47;5121617;27;20019;-76
2022/06/18 08:45:24;;;;;;;3.90;3.00;;;;;;;25.98;93.28;101473.09;5136357;27;20117;-77
2022/06/18 08:48:19;;;;;;;6.43;3.25;;;;;;;25.62;92.80;101476.44;5136853;27;20023;-76
2022/06/18 08:51:59;;;;;;;5.90;3.30;;;;;;;25.69;91.05;101467.00;5136610;27;20359;-76
2022/06/18 08:55:11;;;;;;;4.78;3.28;;;;;;;25.32;92.71;101472.28;5039387;27;20120;-76
2022/06/18 08:58:13;;;;;;;5.68;3.50;;;;;;;26.18;87.92;101464.50;5136394;27;20367;-75
2022/06/18 09:01:20;;;;;;;5.50;3.80;;;;;;;26.18;89.94;101472.56;5136106;27;20027;-77
2022/06/18 09:04:11;;;;;;;7.10;3.50;;;;;;;25.88;88.42;101471.97;5121242;27;20029;-78
2022/06/18 09:07:12;;;;;;;8.43;3.85;;;;;;;26.42;90.62;101473.50;5135019;27;20037;-76
2022/06/18 09:10:05;;;;;;;9.15;3.65;;;;;;;26.81;84.06;101484.97;5136934;27;20027;-77
2022/06/18 09:13:01;;;;;;;6.95;4.38;;;;;;;26.57;87.30;101475.94;5136398;27;20043;-77
2022/06/18 09:15:55;;;;;;;7.78;4.03;;;;;;;26.97;82.30;101476.66;5136354;27;20459;-77
2022/06/18 09:18:55;;;;;;;13.35;6.30;;;;;;;27.04;86.17;101477.91;5136849;27;20042;-77
2022/06/18 09:21:51;;;;;;;11.70;6.95;;;;;;;27.21;88.48;101472.19;5119875;27;20092;-79
2022/06/18 09:24:50;;;;;;;10.73;4.53;;;;;;;27.59;80.52;101475.53;5106798;27;20019;-77
2022/06/18 09:27:41;;;;;;;10.48;3.35;;;;;;;27.73;82.81;101477.19;5119456;27;20038;-77
2022/06/18 09:30:55;;;;;;;3.83;3.17;;;;;;;27.65;80.79;101474.22;5135707;27;20354;-79
2022/06/18 09:34:07;;;;;;;8.00;3.40;;;;;;;28.18;76.14;101465.56;5121073;27;20030;-78
2022/06/18 09:37:02;;;;;;;6.85;3.75;;;;;;;27.52;80.47;101469.78;5120816;27;20034;-77
2022/06/18 09:39:53;;;;;;;5.15;2.95;;;;;;;27.47;79.94;101464.88;5135902;27;20102;-78
2022/06/18 09:42:51;;;;;;;4.75;3.00;;;;;;;27.51;77.36;101461.81;5135415;27;20066;-76
2022/06/18 09:45:53;;;;;;;8.38;2.78;;;;;;;28.14;74.41;101456.00;5134976;27;20023;-77
2022/06/18 09:48:39;;;;;;;3.88;2.78;;;;;;;27.97;70.38;101448.38;5135474;27;20038;-79
2022/06/18 09:51:31;;;;;;;3.65;2.38;;;;;;;27.23;66.34;101457.66;5119301;27;20110;-77
2022/06/18 09:54:17;;;;;;;6.47;2.70;;;;;;;27.36;68.14;101469.22;5135330;27;20459;-76
2022/06/18 09:57:04;;;;;;;9.43;2.90;;;;;;;27.17;68.30;101460.75;5135662;27;20145;-78
2022/06/18 10:00:05;;;;;;;3.20;2.83;;;;;;;27.80;68.70;101457.72;5149783;27;20052;-77
2022/06/18 10:03:04;;;;;;;6.25;2.83;;;;;;;27.77;65.19;101457.13;5137602;27;20027;-78
2022/06/18 10:08:56;;;;;;;8.32;3.10;;;;;;;27.70;69.01;101450.47;5136082;27;20034;-79
2022/06/18 10:11:43;;;;;;;4.43;2.90;;;;;;;27.98;68.38;101447.41;5135968;27;20343;-80
2022/06/18 10:14:32;;;;;;;4.35;2.88;;;;;;;26.81;68.22;101460.78;5135347;27;20122;-77
2022/06/18 10:17:55;;;;;;;3.72;2.70;;;;;;;27.26;76.84;101459.25;5135873;27;20026;-77
2022/06/18 10:20:50;;;;;;;4.65;2.55;;;;;;;26.88;70.05;101448.59;5147166;27;20413;-76
2022/06/18 10:23:54;;;;;;;4.28;2.70;;;;;;;27.32;68.97;101448.88;5134343;27;20023;-76
2022/06/18 10:27:01;;;;;;;5.15;2.65;;;;;;;27.16;69.09;101455.47;5102544;28;20079;-77
2022/06/18 10:30:08;;;;;;;5.15;2.97;;;;;;;27.13;67.46;101455.72;5116194;28;20059;-77
2022/06/18 10:33:41;;;;;;;3.92;2.92;;;;;;;27.02;67.03;101448.47;5116125;28;20459;-77
2022/06/18 10:36:35;;;;;;;3.03;2.53;;;;;;;27.07;69.73;101451.66;5116436;28;20062;-78
2022/06/18 10:39:30;;;;;;;6.78;2.90;;;;;;;27.63;67.77;101443.84;5113768;28;20054;-79
2022/06/18 10:42:19;;;;;;;3.13;2.53;;;;;;;27.62;63.76;101443.00;5114348;28;20046;-78
2022/06/18 10:45:25;;;;;;;4.50;2.47;;;;;;;27.92;61.53;101448.72;5114798;28;20034;-77
2022/06/18 10:48:17;;;;;;;3.67;2.83;;;;;;;27.95;61.40;101429.66;5115201;28;20039;-78
2022/06/18 10:51:03;;;;;;;5.63;2.75;;;;;;;27.63;59.25;101433.94;5117620;28;20340;-79
2022/06/18 10:53:52;;;;;;;2.97;2.28;;;;;;;27.25;65.15;101428.78;5118901;28;20028;-78
2022/06/18 10:56:53;;;;;;;3.25;2.40;;;;;;;27.67;64.41;101419.25;5117604;28;20055;-79
2022/06/18 10:59:42;;;;;;;4.05;2.45;;;;;;;27.95;61.01;101426.94;5116123;28;20385;-77
2022/06/18 11:02:31;;;;;;;2.80;2.50;;;;;;;27.57;58.81;101418.28;5115092;28;20027;-78
2022/06/18 11:05:32;;;;;;;3.60;2.70;;;;;;;27.58;64.53;101419.13;5114645;28;20020;-77
2022/06/18 11:08:23;;;;;;;6.15;3.10;;;;;;;27.99;56.95;101416.78;5114372;28;20406;-76
2022/06/18 11:11:14;;;;;;;5.32;2.70;;;;;;;27.66;59.33;101411.31;5114019;28;20019;-77
2022/06/18 11:14:18;;;;;;;5.32;2.80;;;;;;;27.89;64.41;101416.66;5114167;28;20344;-76
2022/06/18 11:17:21;;;;;;;7.65;2.63;;;;;;;28.32;57.27;101414.97;5114823;28;20028;-77
2022/06/18 11:20:16;;;;;;;3.95;2.65;;;;;;;27.84;58.89;101416.16;5102500;28;20024;-79
2022/06/18 11:23:12;;;;;;;5.63;2.60;;;;;;;27.83;62.75;101405.47;5116627;28;20457;-78
2022/06/18 11:26:05;;;;;;;4.93;2.80;;;;;;;27.72;64.22;101411.69;5120335;28;20051;-76
2022/06/18 11:29:09;;;;;;;4.00;2.60;;;;;;;28.47;61.45;101412.91;5119415;27;20035;-78
2022/06/18 11:31:59;;;;;;;4.72;2.78;;;;;;;27.40;64.86;101408.78;5138377;27;20371;-77
2022/06/18 11:34:51;;;;;;;4.43;2.90;;;;;;;27.90;61.85;101406.72;5127203;27;20022;-78
2022/06/18 11:37:57;;;;;;;3.50;2.60;;;;;;;29.09;58.87;101400.56;5124401;27;20337;-77
2022/06/18 11:40:51;;;;;;;3.78;2.70;;;;;;;29.10;57.67;101403.13;5124011;27;20404;-77
2022/06/18 11:43:59;;;;;;;3.13;2.83;;;;;;;28.58;58.55;101412.91;5137604;27;20027;-76
2022/06/18 11:46:56;;;;;;;7.03;2.70;;;;;;;29.24;57.46;101399.25;5138951;27;20026;-73
2022/06/18 11:50:07;;;;;;;4.90;2.40;;;;;;;29.27;53.63;101409.78;5138171;27;20029;-73
2022/06/18 11:53:09;;;;;;;3.55;2.95;;;;;;;28.92;54.32;101406.44;5138278;27;20347;-77
2022/06/18 11:55:57;;;;;;;5.55;2.58;;;;;;;28.48;55.03;101407.41;5138304;27;20375;-77
2022/06/18 11:58:51;;;;;;;6.70;2.70;;;;;;;28.86;57.34;101402.44;5123975;27;20027;-77
2022/06/18 12:01:46;;;;;;;5.28;2.38;;;;;;;29.23;55.04;101394.84;5123014;27;20110;-77
2022/06/18 12:04:41;;;;;;;8.52;2.75;;;;;;;29.16;51.71;101397.22;5138119;27;20027;-77
2022/06/18 12:07:54;;;;;;;3.22;2.72;;;;;;;28.23;51.60;101395.97;5122225;27;20019;-76
2022/06/18 12:11:25;;;;;;;3.70;2.83;;;;;;;28.81;52.22;101377.66;5122531;27;20440;-77
2022/06/18 12:14:19;;;;;;;6.88;3.00;;;;;;;28.62;52.64;101380.19;5126391;27;20035;-77
2022/06/18 12:17:27;;;;;;;6.20;2.85;;;;;;;29.06;55.30;101376.50;5122068;27;20015;-77
2022/06/18 12:20:51;;;;;;;5.97;3.30;;;;;;;28.25;55.29;101375.16;5136835;27;20191;-77
2022/06/18 12:23:36;;;;;;;4.00;3.17;;;;;;;28.43;56.45;101379.94;5121444;27;20488;-77
2022/06/18 12:26:31;;;;;;;11.55;5.57;;;;;;;28.57;55.34;101376.13;5136636;27;20126;-76
2022/06/18 12:29:22;;;;;;;5.97;3.00;;;;;;;29.02;51.48;101372.34;5136630;27;20478;-77
2022/06/18 12:32:43;;;;;;;4.22;2.97;;;;;;;28.95;51.63;101371.13;5122190;27;20022;-77
2022/06/18 12:35:42;;;;;;;4.63;3.08;;;;;;;29.50;51.79;101373.59;5099500;27;20477;-77
2022/06/18 12:38:43;;;;;;;7.57;3.67;;;;;;;29.67;52.23;101365.78;5137419;27;20023;-77
2022/06/18 12:41:40;;;;;;;4.78;3.25;;;;;;;29.03;52.36;101376.75;5137575;27;20455;-77
2022/06/18 12:44:52;;;;;;;6.43;2.97;;;;;;;28.14;54.15;101369.75;5136843;27;20034;-76
2022/06/18 12:48:03;;;;;;;6.55;3.10;;;;;;;28.25;54.04;101361.69;5136978;27;20022;-77
2022/06/18 12:51:07;;;;;;;6.03;3.20;;;;;;;28.88;53.51;101359.13;5136740;27;20042;-77
2022/06/18 12:54:11;;;;;;;4.25;2.70;;;;;;;29.08;50.39;101355.63;5137438;27;20135;-78
2022/06/18 12:57:17;;;;;;;4.55;2.83;;;;;;;28.85;50.63;101345.91;5136953;27;20019;-77
2022/06/18 13:00:05;;;;;;;4.20;2.83;;;;;;;28.36;50.39;101349.03;5135832;27;20031;-77
2022/06/18 13:03:32;;;;;;;5.00;3.20;;;;;;;28.57;52.82;101341.09;5120006;27;20030;-77
2022/06/18 13:06:40;;;;;;;4.53;2.60;;;;;;;28.41;50.65;101345.97;5120399;27;20032;-79
2022/06/18 13:09:29;;;;;;;5.30;2.60;;;;;;;28.21;50.10;101342.19;5136086;27;20031;-77
2022/06/18 13:12:33;;;;;;;5.00;2.50;;;;;;;28.06;48.98;101351.53;5121245;27;20031;-78
2022/06/18 13:15:27;;;;;;;2.63;2.20;;;;;;;28.34;47.13;101351.03;5136065;27;20019;-78
2022/06/18 13:18:41;;;;;;;2.75;2.13;;;;;;;28.80;47.95;101345.44;5120432;27;20019;-79
2022/06/18 13:21:27;;;;;;;5.50;2.50;;;;;;;29.18;48.62;101353.88;5136415;27;20019;-79
2022/06/18 13:31:19;;;;;;;3.42;2.30;;;;;;;29.22;47.99;101344.53;5136851;27;20074;-78